CYVM/YVM METAR and TAF weather

Enter ICAO airport designator
Station Type Date Time Source
CYVM METAR 2022/09/26 09:00 UTC NOAA

CYVM 260900Z AUTO 00000KT 9SM CLR M00/M02 A2958 RMK SLP018


Station Type Date Time Source
CYVM Decoded METAR 2022/09/26 09:00 UTC NOAA

Broughton Island Airport, Canada (CYVM) 67-33N 064-02W
Sep 26, 2022 - 05:00 AM EDT / 2022.09.26 0900 UTC
Wind: Calm:0
Visibility: 9 mile(s):0
Sky conditions: clear
Temperature: 32 F (0 C)
Dew Point: 28 F (-2 C)
Relative Humidity: 86%
Pressure (altimeter): 29.58 in. Hg (1001 hPa)
ob: CYVM 260900Z AUTO 00000KT 9SM CLR M00/M02 A2958 RMK SLP018
cycle: 9

Station Type Date Time Source
CYVM TAF 2022/09/26 07:42 UTC NOAA

TAF CYVM 260640Z 2607/2619 VRB03KT P6SM FEW070 SCT100
FM261500 07005KT P6SM SCT020 BKN040
RMK FCST BASED ON AUTO OBS. NXT FCST BY 261300Z

Example: see airport list